Elon, NC

10:05 EDT le 26 juillet 2016 (GMT -0400)
Brownstone Drive | | Change Station

Alt. 702 ft 36.11 °N, 79.53 °W | Updated 4 minutes ago

Clear
Ciel dégagé
83.5 ° F
Paraît 92 ° F
N
1.9
Vent Variable Vent de SO
Gusts 5.0 mph

Aujourd'hui
Haut(e) -- | Bas -- ° F
--% Risque de précip.
Hier
Haut(e) -- | Bas -- ° F
Precip. -- pouce
Pression 30.00 pouce
Visibilité 10.0 Miles terrestres
Nuages Ciel dégagé
indice de chaleur 92 ° F
Point de rosée 76 ° F
Humidité 78%
Précipitations 0.00 pouce
Profondeur de la couche neigeuse Non disponible.
6:20 AM 8:27 PM
Lune gibbeuse décroissante, 54% visible
METAR KBUY 261354Z AUTO 23007KT 10SM CLR 29/23 A3002 RMK AO2 SLP158 T02940228
Pression 30.00 pouce
Visibilité 10.0 Miles terrestres
Nuages Ciel dégagé
indice de chaleur 92 ° F
Point de rosée 76 ° F
Humidité 78%
Précipitations 0.00 pouce
Profondeur de la couche neigeuse Non disponible.
6:20 AM 8:27 PM
Lune gibbeuse décroissante, 54% visible
METAR KBUY 261354Z AUTO 23007KT 10SM CLR 29/23 A3002 RMK AO2 SLP158 T02940228

10-Day Weather Forecast

Almanac

Astronomie

Jul. 26, 2016 Lever Coucher
Temps réel
Crépuscule civil
Crépuscule nautique
Crépuscule astronomique
Lune
Durée de lumière visible
Longueur du jour
Tomorrow will be .
, % of the Moon is Illuminated

Extrêmes aujourd'hui

State Highs State Lows

Community

WunderPhotos

Upload Photos

1,927,588 Photos téléchargées !

WunderBlog® & News

Nearby

Qualité de l'air

  Qualité de l'air Indice de la qualité de l'air Polluant
Not available.

Épaisseur de neige

Station Depth Altitude

Activité sismique

Ville Distance Mag. Time & Date
Minimum magnitude displayed is 2.5.

Températures des eaux côtières

Lieu Température

Stations

Stations météo à proximité

Emplacement de la station Température Refroidissement éolien Point de rosée Humidité Vent Precip. Alt. Mise à jour Type
                   

Watches & Warnings

There are currently no watches in effect.